sensor_id;sensor_type;location;lat;lon;timestamp;P1;durP1;ratioP1;P2;durP2;ratioP2
14734;SDS011;7458;49.002;8.472;2022-10-15T00:00:54;2.08;;;1.17;;
14734;SDS011;7458;49.002;8.472;2022-10-15T00:03:34;2.05;;;1.17;;
14734;SDS011;7458;49.002;8.472;2022-10-15T00:06:03;1.75;;;1.25;;
14734;SDS011;7458;49.002;8.472;2022-10-15T00:08:34;1.15;;;1.05;;
14734;SDS011;7458;49.002;8.472;2022-10-15T00:11:04;1.08;;;0.90;;
14734;SDS011;7458;49.002;8.472;2022-10-15T00:13:33;1.70;;;1.00;;
14734;SDS011;7458;49.002;8.472;2022-10-15T00:15:59;0.80;;;0.80;;
14734;SDS011;7458;49.002;8.472;2022-10-15T00:18:26;1.92;;;0.70;;
14734;SDS011;7458;49.002;8.472;2022-10-15T00:20:52;1.20;;;1.13;;
14734;SDS011;7458;49.002;8.472;2022-10-15T00:23:18;1.73;;;0.88;;
14734;SDS011;7458;49.002;8.472;2022-10-15T00:25:43;0.57;;;0.52;;
14734;SDS011;7458;49.002;8.472;2022-10-15T00:28:09;2.20;;;0.65;;
14734;SDS011;7458;49.002;8.472;2022-10-15T00:30:35;1.77;;;0.60;;
14734;SDS011;7458;49.002;8.472;2022-10-15T00:33:00;1.08;;;0.80;;
14734;SDS011;7458;49.002;8.472;2022-10-15T00:35:26;1.30;;;1.10;;
14734;SDS011;7458;49.002;8.472;2022-10-15T00:37:52;0.98;;;0.80;;
14734;SDS011;7458;49.002;8.472;2022-10-15T00:40:18;0.60;;;0.60;;
14734;SDS011;7458;49.002;8.472;2022-10-15T00:42:44;1.02;;;0.93;;
14734;SDS011;7458;49.002;8.472;2022-10-15T00:45:10;0.98;;;0.65;;
14734;SDS011;7458;49.002;8.472;2022-10-15T00:47:46;0.95;;;0.60;;
14734;SDS011;7458;49.002;8.472;2022-10-15T00:50:16;1.25;;;0.50;;
14734;SDS011;7458;49.002;8.472;2022-10-15T00:52:56;0.63;;;0.63;;
14734;SDS011;7458;49.002;8.472;2022-10-15T00:55:33;0.55;;;0.55;;
14734;SDS011;7458;49.002;8.472;2022-10-15T00:58:05;3.63;;;0.75;;
14734;SDS011;7458;49.002;8.472;2022-10-15T01:00:36;1.00;;;0.75;;
14734;SDS011;7458;49.002;8.472;2022-10-15T01:03:02;2.45;;;0.70;;
14734;SDS011;7458;49.002;8.472;2022-10-15T01:05:28;1.65;;;1.38;;
14734;SDS011;7458;49.002;8.472;2022-10-15T01:07:55;1.45;;;0.70;;
14734;SDS011;7458;49.002;8.472;2022-10-15T01:10:21;0.88;;;0.63;;
14734;SDS011;7458;49.002;8.472;2022-10-15T01:13:08;0.60;;;0.60;;
14734;SDS011;7458;49.002;8.472;2022-10-15T01:16:08;0.77;;;0.68;;
14734;SDS011;7458;49.002;8.472;2022-10-15T01:18:50;1.20;;;0.73;;
14734;SDS011;7458;49.002;8.472;2022-10-15T01:21:33;0.85;;;0.75;;
14734;SDS011;7458;49.002;8.472;2022-10-15T01:24:18;0.98;;;0.88;;
14734;SDS011;7458;49.002;8.472;2022-10-15T01:27:17;16.48;;;1.30;;
14734;SDS011;7458;49.002;8.472;2022-10-15T01:41:51;1.80;;;0.73;;
14734;SDS011;7458;49.002;8.472;2022-10-15T01:47:02;2.10;;;0.90;;
14734;SDS011;7458;49.002;8.472;2022-10-15T01:49:37;1.23;;;0.80;;
14734;SDS011;7458;49.002;8.472;2022-10-15T01:52:09;1.25;;;0.82;;
14734;SDS011;7458;49.002;8.472;2022-10-15T01:54:42;0.95;;;0.85;;
14734;SDS011;7458;49.002;8.472;2022-10-15T01:57:13;0.52;;;0.52;;
14734;SDS011;7458;49.002;8.472;2022-10-15T01:59:42;2.10;;;0.77;;
14734;SDS011;7458;49.002;8.472;2022-10-15T02:02:08;0.93;;;0.90;;
14734;SDS011;7458;49.002;8.472;2022-10-15T02:04:34;3.75;;;1.05;;
14734;SDS011;7458;49.002;8.472;2022-10-15T02:07:07;0.77;;;0.77;;
14734;SDS011;7458;49.002;8.472;2022-10-15T02:09:51;0.80;;;0.80;;
14734;SDS011;7458;49.002;8.472;2022-10-15T02:15:45;1.33;;;1.20;;
14734;SDS011;7458;49.002;8.472;2022-10-15T02:18:37;4.30;;;1.30;;
14734;SDS011;7458;49.002;8.472;2022-10-15T02:24:28;0.63;;;0.63;;
14734;SDS011;7458;49.002;8.472;2022-10-15T02:27:03;1.30;;;0.70;;
14734;SDS011;7458;49.002;8.472;2022-10-15T02:29:33;1.02;;;0.90;;
14734;SDS011;7458;49.002;8.472;2022-10-15T02:32:03;1.08;;;0.90;;
14734;SDS011;7458;49.002;8.472;2022-10-15T02:34:32;1.05;;;0.95;;
14734;SDS011;7458;49.002;8.472;2022-10-15T02:37:00;0.95;;;0.77;;
14734;SDS011;7458;49.002;8.472;2022-10-15T02:39:29;1.23;;;1.13;;
14734;SDS011;7458;49.002;8.472;2022-10-15T02:41:55;1.02;;;0.93;;
14734;SDS011;7458;49.002;8.472;2022-10-15T02:44:22;1.27;;;0.95;;
14734;SDS011;7458;49.002;8.472;2022-10-15T02:46:48;1.15;;;1.08;;
14734;SDS011;7458;49.002;8.472;2022-10-15T02:49:13;1.00;;;0.88;;
14734;SDS011;7458;49.002;8.472;2022-10-15T02:51:39;0.88;;;0.80;;
14734;SDS011;7458;49.002;8.472;2022-10-15T02:54:06;0.57;;;0.50;;
14734;SDS011;7458;49.002;8.472;2022-10-15T02:56:32;1.25;;;0.80;;
14734;SDS011;7458;49.002;8.472;2022-10-15T02:58:59;1.77;;;1.20;;
14734;SDS011;7458;49.002;8.472;2022-10-15T03:01:25;0.90;;;0.85;;
14734;SDS011;7458;49.002;8.472;2022-10-15T03:03:51;0.82;;;0.82;;
14734;SDS011;7458;49.002;8.472;2022-10-15T03:06:16;1.85;;;0.93;;
14734;SDS011;7458;49.002;8.472;2022-10-15T03:08:42;0.65;;;0.65;;
14734;SDS011;7458;49.002;8.472;2022-10-15T03:11:08;0.75;;;0.75;;
14734;SDS011;7458;49.002;8.472;2022-10-15T03:13:35;0.88;;;0.80;;
14734;SDS011;7458;49.002;8.472;2022-10-15T03:16:03;2.05;;;0.95;;
14734;SDS011;7458;49.002;8.472;2022-10-15T03:18:30;1.70;;;1.52;;
14734;SDS011;7458;49.002;8.472;2022-10-15T03:20:57;1.05;;;0.88;;
14734;SDS011;7458;49.002;8.472;2022-10-15T03:23:24;2.03;;;0.95;;
14734;SDS011;7458;49.002;8.472;2022-10-15T03:25:50;1.23;;;0.70;;
14734;SDS011;7458;49.002;8.472;2022-10-15T03:28:16;0.93;;;0.80;;
14734;SDS011;7458;49.002;8.472;2022-10-15T03:30:42;1.30;;;0.98;;
14734;SDS011;7458;49.002;8.472;2022-10-15T03:33:08;0.82;;;0.73;;
14734;SDS011;7458;49.002;8.472;2022-10-15T03:35:35;0.93;;;0.90;;
14734;SDS011;7458;49.002;8.472;2022-10-15T03:38:02;4.05;;;1.10;;
14734;SDS011;7458;49.002;8.472;2022-10-15T03:40:27;1.63;;;0.93;;
14734;SDS011;7458;49.002;8.472;2022-10-15T03:42:53;1.65;;;1.00;;
14734;SDS011;7458;49.002;8.472;2022-10-15T03:45:20;2.38;;;1.23;;
14734;SDS011;7458;49.002;8.472;2022-10-15T03:47:47;1.08;;;0.82;;
14734;SDS011;7458;49.002;8.472;2022-10-15T03:50:13;1.17;;;0.93;;
14734;SDS011;7458;49.002;8.472;2022-10-15T03:52:39;0.82;;;0.82;;
14734;SDS011;7458;49.002;8.472;2022-10-15T03:55:06;2.30;;;1.17;;
14734;SDS011;7458;49.002;8.472;2022-10-15T03:57:33;1.58;;;1.20;;
14734;SDS011;7458;49.002;8.472;2022-10-15T04:00:00;1.08;;;0.98;;
14734;SDS011;7458;49.002;8.472;2022-10-15T04:02:29;2.58;;;1.00;;
14734;SDS011;7458;49.002;8.472;2022-10-15T04:04:55;1.33;;;1.10;;
14734;SDS011;7458;49.002;8.472;2022-10-15T04:07:22;2.30;;;0.85;;
14734;SDS011;7458;49.002;8.472;2022-10-15T04:09:48;1.52;;;1.00;;
14734;SDS011;7458;49.002;8.472;2022-10-15T04:12:13;2.25;;;1.00;;
14734;SDS011;7458;49.002;8.472;2022-10-15T04:14:40;2.63;;;1.55;;
14734;SDS011;7458;49.002;8.472;2022-10-15T04:17:06;5.10;;;1.00;;
14734;SDS011;7458;49.002;8.472;2022-10-15T04:19:32;3.35;;;2.10;;
14734;SDS011;7458;49.002;8.472;2022-10-15T04:21:57;3.05;;;1.77;;
14734;SDS011;7458;49.002;8.472;2022-10-15T04:24:23;1.20;;;1.10;;
14734;SDS011;7458;49.002;8.472;2022-10-15T04:26:49;2.25;;;1.10;;
14734;SDS011;7458;49.002;8.472;2022-10-15T04:29:15;1.02;;;0.85;;
14734;SDS011;7458;49.002;8.472;2022-10-15T04:31:42;2.08;;;1.25;;
14734;SDS011;7458;49.002;8.472;2022-10-15T04:34:08;2.25;;;1.40;;
14734;SDS011;7458;49.002;8.472;2022-10-15T04:36:35;1.85;;;1.20;;
14734;SDS011;7458;49.002;8.472;2022-10-15T04:39:01;2.70;;;1.85;;
14734;SDS011;7458;49.002;8.472;2022-10-15T04:41:27;3.72;;;1.13;;
14734;SDS011;7458;49.002;8.472;2022-10-15T04:43:54;1.90;;;1.25;;
14734;SDS011;7458;49.002;8.472;2022-10-15T04:46:21;1.52;;;1.13;;
14734;SDS011;7458;49.002;8.472;2022-10-15T04:48:48;4.22;;;1.40;;
14734;SDS011;7458;49.002;8.472;2022-10-15T04:51:18;2.17;;;1.20;;
14734;SDS011;7458;49.002;8.472;2022-10-15T04:53:45;6.20;;;2.45;;
14734;SDS011;7458;49.002;8.472;2022-10-15T04:56:13;4.72;;;1.30;;
14734;SDS011;7458;49.002;8.472;2022-10-15T04:58:43;3.22;;;2.22;;
14734;SDS011;7458;49.002;8.472;2022-10-15T05:01:12;5.07;;;1.38;;
14734;SDS011;7458;49.002;8.472;2022-10-15T05:03:41;1.15;;;0.95;;
14734;SDS011;7458;49.002;8.472;2022-10-15T05:06:11;2.08;;;1.20;;
14734;SDS011;7458;49.002;8.472;2022-10-15T05:08:42;1.58;;;1.20;;
14734;SDS011;7458;49.002;8.472;2022-10-15T05:11:10;3.90;;;1.80;;
14734;SDS011;7458;49.002;8.472;2022-10-15T05:13:39;2.65;;;1.02;;
14734;SDS011;7458;49.002;8.472;2022-10-15T05:16:15;2.05;;;1.40;;
14734;SDS011;7458;49.002;8.472;2022-10-15T05:18:45;1.88;;;1.30;;
14734;SDS011;7458;49.002;8.472;2022-10-15T05:21:14;1.38;;;1.00;;
14734;SDS011;7458;49.002;8.472;2022-10-15T05:23:41;3.95;;;1.42;;
14734;SDS011;7458;49.002;8.472;2022-10-15T05:26:11;2.35;;;1.73;;
14734;SDS011;7458;49.002;8.472;2022-10-15T05:28:41;9.30;;;2.22;;
14734;SDS011;7458;49.002;8.472;2022-10-15T05:31:07;5.25;;;1.60;;
14734;SDS011;7458;49.002;8.472;2022-10-15T05:33:39;1.65;;;1.40;;
14734;SDS011;7458;49.002;8.472;2022-10-15T05:38:41;4.60;;;1.80;;
14734;SDS011;7458;49.002;8.472;2022-10-15T05:41:09;2.92;;;2.13;;
14734;SDS011;7458;49.002;8.472;2022-10-15T05:43:34;2.90;;;1.67;;
14734;SDS011;7458;49.002;8.472;2022-10-15T05:46:00;5.40;;;1.95;;
14734;SDS011;7458;49.002;8.472;2022-10-15T05:48:26;1.45;;;1.27;;
14734;SDS011;7458;49.002;8.472;2022-10-15T05:50:51;1.92;;;1.67;;
14734;SDS011;7458;49.002;8.472;2022-10-15T05:53:18;1.90;;;1.42;;
14734;SDS011;7458;49.002;8.472;2022-10-15T05:55:44;3.35;;;1.85;;
14734;SDS011;7458;49.002;8.472;2022-10-15T05:58:09;2.17;;;1.80;;
14734;SDS011;7458;49.002;8.472;2022-10-15T06:00:35;3.08;;;1.88;;
14734;SDS011;7458;49.002;8.472;2022-10-15T06:03:03;7.80;;;2.28;;
14734;SDS011;7458;49.002;8.472;2022-10-15T06:05:30;1.70;;;1.50;;
14734;SDS011;7458;49.002;8.472;2022-10-15T06:07:56;4.13;;;1.80;;
14734;SDS011;7458;49.002;8.472;2022-10-15T06:10:21;4.47;;;1.77;;
14734;SDS011;7458;49.002;8.472;2022-10-15T06:12:50;3.78;;;1.85;;
14734;SDS011;7458;49.002;8.472;2022-10-15T06:15:16;3.85;;;2.10;;
14734;SDS011;7458;49.002;8.472;2022-10-15T06:17:43;5.63;;;1.80;;
14734;SDS011;7458;49.002;8.472;2022-10-15T06:20:11;4.07;;;1.92;;
14734;SDS011;7458;49.002;8.472;2022-10-15T06:22:37;2.53;;;1.80;;
14734;SDS011;7458;49.002;8.472;2022-10-15T06:25:03;2.67;;;1.83;;
14734;SDS011;7458;49.002;8.472;2022-10-15T06:27:29;5.13;;;2.50;;
14734;SDS011;7458;49.002;8.472;2022-10-15T06:29:57;2.45;;;1.85;;
14734;SDS011;7458;49.002;8.472;2022-10-15T06:32:23;4.90;;;2.08;;
14734;SDS011;7458;49.002;8.472;2022-10-15T06:34:49;4.40;;;1.88;;
14734;SDS011;7458;49.002;8.472;2022-10-15T06:37:14;2.33;;;1.92;;
14734;SDS011;7458;49.002;8.472;2022-10-15T06:39:40;3.03;;;2.53;;
14734;SDS011;7458;49.002;8.472;2022-10-15T06:42:06;3.70;;;2.47;;
14734;SDS011;7458;49.002;8.472;2022-10-15T06:44:31;3.78;;;2.08;;
14734;SDS011;7458;49.002;8.472;2022-10-15T06:46:57;4.68;;;2.42;;
14734;SDS011;7458;49.002;8.472;2022-10-15T06:49:23;5.40;;;2.30;;
14734;SDS011;7458;49.002;8.472;2022-10-15T06:51:49;5.20;;;3.28;;
14734;SDS011;7458;49.002;8.472;2022-10-15T06:54:14;3.55;;;2.13;;
14734;SDS011;7458;49.002;8.472;2022-10-15T06:56:40;4.45;;;2.10;;
14734;SDS011;7458;49.002;8.472;2022-10-15T06:59:06;5.95;;;2.28;;
14734;SDS011;7458;49.002;8.472;2022-10-15T07:01:32;2.85;;;1.65;;
14734;SDS011;7458;49.002;8.472;2022-10-15T07:03:57;5.00;;;2.58;;
14734;SDS011;7458;49.002;8.472;2022-10-15T07:06:23;6.47;;;2.47;;
14734;SDS011;7458;49.002;8.472;2022-10-15T07:08:49;2.22;;;1.95;;
14734;SDS011;7458;49.002;8.472;2022-10-15T07:11:15;3.13;;;1.92;;
14734;SDS011;7458;49.002;8.472;2022-10-15T07:13:42;4.75;;;3.08;;
14734;SDS011;7458;49.002;8.472;2022-10-15T07:16:08;3.45;;;2.63;;
14734;SDS011;7458;49.002;8.472;2022-10-15T07:18:36;5.18;;;3.40;;
14734;SDS011;7458;49.002;8.472;2022-10-15T07:21:04;10.20;;;2.80;;
14734;SDS011;7458;49.002;8.472;2022-10-15T07:23:32;3.53;;;2.28;;
14734;SDS011;7458;49.002;8.472;2022-10-15T07:25:58;10.15;;;2.58;;
14734;SDS011;7458;49.002;8.472;2022-10-15T07:28:25;4.15;;;2.67;;
14734;SDS011;7458;49.002;8.472;2022-10-15T07:30:51;3.95;;;2.58;;
14734;SDS011;7458;49.002;8.472;2022-10-15T07:33:17;3.80;;;2.90;;
14734;SDS011;7458;49.002;8.472;2022-10-15T07:35:43;4.13;;;2.95;;
14734;SDS011;7458;49.002;8.472;2022-10-15T07:38:08;3.45;;;2.72;;
14734;SDS011;7458;49.002;8.472;2022-10-15T07:40:34;3.90;;;3.05;;
14734;SDS011;7458;49.002;8.472;2022-10-15T07:43:00;5.78;;;3.15;;
14734;SDS011;7458;49.002;8.472;2022-10-15T07:45:26;4.72;;;2.35;;
14734;SDS011;7458;49.002;8.472;2022-10-15T07:47:52;3.90;;;2.15;;
14734;SDS011;7458;49.002;8.472;2022-10-15T07:50:21;4.40;;;2.17;;
14734;SDS011;7458;49.002;8.472;2022-10-15T07:52:46;3.92;;;2.63;;
14734;SDS011;7458;49.002;8.472;2022-10-15T07:55:12;6.38;;;1.90;;
14734;SDS011;7458;49.002;8.472;2022-10-15T07:57:39;4.90;;;1.75;;
14734;SDS011;7458;49.002;8.472;2022-10-15T08:00:04;2.67;;;2.00;;
14734;SDS011;7458;49.002;8.472;2022-10-15T08:02:31;4.28;;;2.20;;
14734;SDS011;7458;49.002;8.472;2022-10-15T08:04:57;4.20;;;3.03;;
14734;SDS011;7458;49.002;8.472;2022-10-15T08:07:22;4.45;;;3.03;;
14734;SDS011;7458;49.002;8.472;2022-10-15T08:09:48;4.93;;;3.08;;
14734;SDS011;7458;49.002;8.472;2022-10-15T08:12:14;4.28;;;2.15;;
14734;SDS011;7458;49.002;8.472;2022-10-15T08:14:39;4.13;;;2.55;;
14734;SDS011;7458;49.002;8.472;2022-10-15T08:17:05;4.95;;;2.70;;
14734;SDS011;7458;49.002;8.472;2022-10-15T08:19:31;5.53;;;3.28;;
14734;SDS011;7458;49.002;8.472;2022-10-15T08:21:57;3.72;;;2.00;;
14734;SDS011;7458;49.002;8.472;2022-10-15T08:24:23;2.75;;;1.85;;
14734;SDS011;7458;49.002;8.472;2022-10-15T08:26:49;6.38;;;1.85;;
14734;SDS011;7458;49.002;8.472;2022-10-15T08:29:15;6.13;;;1.52;;
14734;SDS011;7458;49.002;8.472;2022-10-15T08:31:41;3.55;;;1.60;;
14734;SDS011;7458;49.002;8.472;2022-10-15T08:34:07;3.25;;;1.55;;
14734;SDS011;7458;49.002;8.472;2022-10-15T08:36:33;3.08;;;1.70;;
14734;SDS011;7458;49.002;8.472;2022-10-15T08:38:59;2.03;;;1.38;;
14734;SDS011;7458;49.002;8.472;2022-10-15T08:41:28;2.17;;;1.33;;
14734;SDS011;7458;49.002;8.472;2022-10-15T08:44:32;1.80;;;1.65;;
14734;SDS011;7458;49.002;8.472;2022-10-15T08:50:27;2.15;;;1.30;;
14734;SDS011;7458;49.002;8.472;2022-10-15T08:53:11;1.45;;;1.10;;
14734;SDS011;7458;49.002;8.472;2022-10-15T08:55:43;2.13;;;1.30;;
14734;SDS011;7458;49.002;8.472;2022-10-15T08:58:19;2.55;;;1.83;;
14734;SDS011;7458;49.002;8.472;2022-10-15T09:00:57;3.90;;;1.25;;
14734;SDS011;7458;49.002;8.472;2022-10-15T09:06:27;4.75;;;3.15;;
14734;SDS011;7458;49.002;8.472;2022-10-15T09:09:05;2.70;;;1.98;;
14734;SDS011;7458;49.002;8.472;2022-10-15T09:14:36;4.20;;;2.13;;
14734;SDS011;7458;49.002;8.472;2022-10-15T09:17:41;1.85;;;1.63;;
14734;SDS011;7458;49.002;8.472;2022-10-15T09:20:03;1.55;;;1.17;;
14734;SDS011;7458;49.002;8.472;2022-10-15T09:22:32;1.85;;;1.60;;
14734;SDS011;7458;49.002;8.472;2022-10-15T09:25:06;3.80;;;1.50;;
14734;SDS011;7458;49.002;8.472;2022-10-15T09:27:44;4.55;;;1.63;;
14734;SDS011;7458;49.002;8.472;2022-10-15T09:42:19;2.25;;;1.45;;
14734;SDS011;7458;49.002;8.472;2022-10-15T09:44:59;2.93;;;1.90;;
14734;SDS011;7458;49.002;8.472;2022-10-15T09:47:33;2.15;;;1.40;;
14734;SDS011;7458;49.002;8.472;2022-10-15T09:50:04;1.33;;;1.10;;
14734;SDS011;7458;49.002;8.472;2022-10-15T09:58:14;2.00;;;0.93;;
14734;SDS011;7458;49.002;8.472;2022-10-15T10:00:50;0.98;;;0.88;;
14734;SDS011;7458;49.002;8.472;2022-10-15T10:03:26;1.98;;;1.38;;
14734;SDS011;7458;49.002;8.472;2022-10-15T10:06:25;4.32;;;1.33;;
14734;SDS011;7458;49.002;8.472;2022-10-15T10:08:52;2.92;;;1.63;;
14734;SDS011;7458;49.002;8.472;2022-10-15T10:11:22;1.77;;;1.20;;
14734;SDS011;7458;49.002;8.472;2022-10-15T10:13:52;2.63;;;1.00;;
14734;SDS011;7458;49.002;8.472;2022-10-15T10:16:24;3.83;;;1.02;;
14734;SDS011;7458;49.002;8.472;2022-10-15T10:19:01;1.85;;;1.10;;
14734;SDS011;7458;49.002;8.472;2022-10-15T10:21:31;3.13;;;0.90;;
14734;SDS011;7458;49.002;8.472;2022-10-15T10:27:15;3.20;;;1.35;;
14734;SDS011;7458;49.002;8.472;2022-10-15T10:29:53;2.63;;;1.05;;
14734;SDS011;7458;49.002;8.472;2022-10-15T10:32:27;2.05;;;1.50;;
14734;SDS011;7458;49.002;8.472;2022-10-15T10:34:56;1.42;;;1.02;;
14734;SDS011;7458;49.002;8.472;2022-10-15T10:37:38;5.78;;;2.35;;
14734;SDS011;7458;49.002;8.472;2022-10-15T10:40:18;4.50;;;1.77;;
14734;SDS011;7458;49.002;8.472;2022-10-15T10:46:03;3.03;;;1.50;;
14734;SDS011;7458;49.002;8.472;2022-10-15T10:48:40;2.30;;;1.42;;
14734;SDS011;7458;49.002;8.472;2022-10-15T10:51:14;4.50;;;1.80;;
14734;SDS011;7458;49.002;8.472;2022-10-15T10:53:48;2.33;;;1.40;;
14734;SDS011;7458;49.002;8.472;2022-10-15T10:56:27;2.80;;;1.15;;
14734;SDS011;7458;49.002;8.472;2022-10-15T10:59:09;3.55;;;1.75;;
14734;SDS011;7458;49.002;8.472;2022-10-15T11:01:42;3.10;;;2.08;;
14734;SDS011;7458;49.002;8.472;2022-10-15T11:04:11;17.48;;;2.22;;
14734;SDS011;7458;49.002;8.472;2022-10-15T11:15:26;5.15;;;1.83;;
14734;SDS011;7458;49.002;8.472;2022-10-15T11:21:05;3.33;;;1.90;;
14734;SDS011;7458;49.002;8.472;2022-10-15T11:29:33;2.50;;;1.65;;
14734;SDS011;7458;49.002;8.472;2022-10-15T11:33:01;2.33;;;1.77;;
14734;SDS011;7458;49.002;8.472;2022-10-15T11:49:42;4.75;;;1.67;;
14734;SDS011;7458;49.002;8.472;2022-10-15T11:55:27;1.60;;;1.15;;
14734;SDS011;7458;49.002;8.472;2022-10-15T11:58:25;1.42;;;1.13;;
14734;SDS011;7458;49.002;8.472;2022-10-15T12:01:11;4.45;;;1.90;;
14734;SDS011;7458;49.002;8.472;2022-10-15T12:03:50;4.72;;;1.77;;
14734;SDS011;7458;49.002;8.472;2022-10-15T12:06:29;3.50;;;1.13;;
14734;SDS011;7458;49.002;8.472;2022-10-15T12:09:04;2.05;;;1.42;;
14734;SDS011;7458;49.002;8.472;2022-10-15T12:11:38;7.55;;;1.30;;
14734;SDS011;7458;49.002;8.472;2022-10-15T12:19:44;3.28;;;1.40;;
14734;SDS011;7458;49.002;8.472;2022-10-15T12:22:30;1.33;;;1.10;;
14734;SDS011;7458;49.002;8.472;2022-10-15T12:30:42;4.22;;;1.73;;
14734;SDS011;7458;49.002;8.472;2022-10-15T12:33:36;2.45;;;1.50;;
14734;SDS011;7458;49.002;8.472;2022-10-15T12:36:21;0.93;;;0.93;;
14734;SDS011;7458;49.002;8.472;2022-10-15T12:41:36;1.52;;;1.05;;
14734;SDS011;7458;49.002;8.472;2022-10-15T12:46:53;8.13;;;1.25;;
14734;SDS011;7458;49.002;8.472;2022-10-15T12:51:55;2.17;;;1.40;;
14734;SDS011;7458;49.002;8.472;2022-10-15T12:54:36;2.70;;;1.13;;
14734;SDS011;7458;49.002;8.472;2022-10-15T12:59:54;2.05;;;1.20;;
14734;SDS011;7458;49.002;8.472;2022-10-15T13:05:08;1.30;;;0.93;;
14734;SDS011;7458;49.002;8.472;2022-10-15T13:07:50;4.03;;;1.15;;
14734;SDS011;7458;49.002;8.472;2022-10-15T13:10:19;2.50;;;1.52;;
14734;SDS011;7458;49.002;8.472;2022-10-15T13:15:37;1.83;;;1.02;;
14734;SDS011;7458;49.002;8.472;2022-10-15T13:18:07;1.38;;;0.95;;
14734;SDS011;7458;49.002;8.472;2022-10-15T13:20:43;2.03;;;1.10;;
14734;SDS011;7458;49.002;8.472;2022-10-15T13:25:45;2.87;;;1.53;;
14734;SDS011;7458;49.002;8.472;2022-10-15T13:28:26;1.52;;;1.20;;
14734;SDS011;7458;49.002;8.472;2022-10-15T13:31:02;2.60;;;1.35;;
14734;SDS011;7458;49.002;8.472;2022-10-15T13:33:44;2.65;;;1.90;;
14734;SDS011;7458;49.002;8.472;2022-10-15T13:36:19;2.30;;;1.27;;
14734;SDS011;7458;49.002;8.472;2022-10-15T13:38:55;1.83;;;1.20;;
14734;SDS011;7458;49.002;8.472;2022-10-15T13:41:35;3.17;;;1.60;;
14734;SDS011;7458;49.002;8.472;2022-10-15T13:44:17;3.63;;;1.15;;
14734;SDS011;7458;49.002;8.472;2022-10-15T13:46:48;2.22;;;1.42;;
14734;SDS011;7458;49.002;8.472;2022-10-15T13:49:14;4.82;;;1.30;;
14734;SDS011;7458;49.002;8.472;2022-10-15T13:51:42;2.33;;;1.65;;
14734;SDS011;7458;49.002;8.472;2022-10-15T13:54:19;1.88;;;1.67;;
14734;SDS011;7458;49.002;8.472;2022-10-15T13:56:52;2.70;;;1.52;;
14734;SDS011;7458;49.002;8.472;2022-10-15T13:59:23;2.72;;;1.52;;
14734;SDS011;7458;49.002;8.472;2022-10-15T14:01:53;2.00;;;1.58;;
14734;SDS011;7458;49.002;8.472;2022-10-15T14:06:57;2.42;;;1.52;;
14734;SDS011;7458;49.002;8.472;2022-10-15T14:09:42;3.35;;;1.65;;
14734;SDS011;7458;49.002;8.472;2022-10-15T14:12:11;2.50;;;1.58;;
14734;SDS011;7458;49.002;8.472;2022-10-15T14:14:44;2.00;;;1.58;;
14734;SDS011;7458;49.002;8.472;2022-10-15T14:17:12;5.95;;;5.10;;
14734;SDS011;7458;49.002;8.472;2022-10-15T14:19:54;3.30;;;2.25;;
14734;SDS011;7458;49.002;8.472;2022-10-15T14:22:25;3.85;;;1.60;;
14734;SDS011;7458;49.002;8.472;2022-10-15T14:24:53;3.72;;;1.85;;
14734;SDS011;7458;49.002;8.472;2022-10-15T14:27:21;4.22;;;2.50;;
14734;SDS011;7458;49.002;8.472;2022-10-15T14:29:57;4.03;;;2.28;;
14734;SDS011;7458;49.002;8.472;2022-10-15T14:34:54;5.82;;;1.80;;
14734;SDS011;7458;49.002;8.472;2022-10-15T14:37:28;4.38;;;1.90;;
14734;SDS011;7458;49.002;8.472;2022-10-15T14:42:33;2.63;;;1.85;;
14734;SDS011;7458;49.002;8.472;2022-10-15T14:47:55;2.45;;;2.00;;
14734;SDS011;7458;49.002;8.472;2022-10-15T14:50:26;7.35;;;1.50;;
14734;SDS011;7458;49.002;8.472;2022-10-15T14:52:55;2.92;;;2.22;;
14734;SDS011;7458;49.002;8.472;2022-10-15T14:58:08;4.53;;;2.90;;
14734;SDS011;7458;49.002;8.472;2022-10-15T15:00:43;5.10;;;2.50;;
14734;SDS011;7458;49.002;8.472;2022-10-15T15:03:19;4.85;;;3.25;;
14734;SDS011;7458;49.002;8.472;2022-10-15T15:05:51;9.50;;;4.20;;
14734;SDS011;7458;49.002;8.472;2022-10-15T15:08:19;8.30;;;4.68;;
14734;SDS011;7458;49.002;8.472;2022-10-15T15:10:46;10.52;;;4.60;;
14734;SDS011;7458;49.002;8.472;2022-10-15T15:13:16;7.53;;;4.70;;
14734;SDS011;7458;49.002;8.472;2022-10-15T15:15:46;5.70;;;3.65;;
14734;SDS011;7458;49.002;8.472;2022-10-15T15:18:12;4.90;;;3.63;;
14734;SDS011;7458;49.002;8.472;2022-10-15T15:20:38;5.28;;;3.05;;
14734;SDS011;7458;49.002;8.472;2022-10-15T15:23:05;3.25;;;2.10;;
14734;SDS011;7458;49.002;8.472;2022-10-15T15:25:37;4.20;;;2.55;;
14734;SDS011;7458;49.002;8.472;2022-10-15T15:28:05;3.28;;;2.20;;
14734;SDS011;7458;49.002;8.472;2022-10-15T15:30:42;4.28;;;2.47;;
14734;SDS011;7458;49.002;8.472;2022-10-15T15:33:13;7.78;;;3.53;;
14734;SDS011;7458;49.002;8.472;2022-10-15T15:35:45;3.40;;;2.40;;
14734;SDS011;7458;49.002;8.472;2022-10-15T15:38:20;2.92;;;1.92;;
14734;SDS011;7458;49.002;8.472;2022-10-15T15:40:48;5.40;;;1.92;;
14734;SDS011;7458;49.002;8.472;2022-10-15T15:43:15;5.35;;;1.73;;
14734;SDS011;7458;49.002;8.472;2022-10-15T15:45:43;3.75;;;1.70;;
14734;SDS011;7458;49.002;8.472;2022-10-15T15:48:10;3.45;;;2.33;;
14734;SDS011;7458;49.002;8.472;2022-10-15T15:50:36;2.58;;;1.55;;
14734;SDS011;7458;49.002;8.472;2022-10-15T15:53:02;1.65;;;1.50;;
14734;SDS011;7458;49.002;8.472;2022-10-15T15:55:28;1.75;;;1.48;;
14734;SDS011;7458;49.002;8.472;2022-10-15T15:57:54;9.65;;;1.95;;
14734;SDS011;7458;49.002;8.472;2022-10-15T16:00:20;4.95;;;1.75;;
14734;SDS011;7458;49.002;8.472;2022-10-15T16:02:46;3.88;;;1.52;;
14734;SDS011;7458;49.002;8.472;2022-10-15T16:05:12;1.98;;;1.77;;
14734;SDS011;7458;49.002;8.472;2022-10-15T16:07:41;2.13;;;1.33;;
14734;SDS011;7458;49.002;8.472;2022-10-15T16:10:07;4.57;;;1.42;;
14734;SDS011;7458;49.002;8.472;2022-10-15T16:12:36;1.45;;;1.33;;
14734;SDS011;7458;49.002;8.472;2022-10-15T16:15:04;1.95;;;1.50;;
14734;SDS011;7458;49.002;8.472;2022-10-15T16:17:30;1.85;;;1.50;;
14734;SDS011;7458;49.002;8.472;2022-10-15T16:19:56;2.85;;;1.75;;
14734;SDS011;7458;49.002;8.472;2022-10-15T16:22:22;4.97;;;1.58;;
14734;SDS011;7458;49.002;8.472;2022-10-15T16:24:47;4.00;;;1.42;;
14734;SDS011;7458;49.002;8.472;2022-10-15T16:27:13;1.70;;;1.45;;
14734;SDS011;7458;49.002;8.472;2022-10-15T16:29:39;2.50;;;1.70;;
14734;SDS011;7458;49.002;8.472;2022-10-15T16:32:05;2.05;;;1.65;;
14734;SDS011;7458;49.002;8.472;2022-10-15T16:34:30;3.15;;;1.52;;
14734;SDS011;7458;49.002;8.472;2022-10-15T16:36:56;1.92;;;1.63;;
14734;SDS011;7458;49.002;8.472;2022-10-15T16:39:22;3.05;;;1.83;;
14734;SDS011;7458;49.002;8.472;2022-10-15T16:41:48;4.40;;;2.25;;
14734;SDS011;7458;49.002;8.472;2022-10-15T16:44:14;2.88;;;1.92;;
14734;SDS011;7458;49.002;8.472;2022-10-15T16:46:40;4.00;;;2.17;;
14734;SDS011;7458;49.002;8.472;2022-10-15T16:49:06;4.32;;;2.72;;
14734;SDS011;7458;49.002;8.472;2022-10-15T16:51:32;3.67;;;2.67;;
14734;SDS011;7458;49.002;8.472;2022-10-15T16:53:58;6.28;;;2.70;;
14734;SDS011;7458;49.002;8.472;2022-10-15T16:56:25;4.82;;;2.67;;
14734;SDS011;7458;49.002;8.472;2022-10-15T16:58:53;3.78;;;2.83;;
14734;SDS011;7458;49.002;8.472;2022-10-15T17:01:21;4.43;;;2.50;;
14734;SDS011;7458;49.002;8.472;2022-10-15T17:03:50;5.20;;;2.22;;
14734;SDS011;7458;49.002;8.472;2022-10-15T17:06:22;3.15;;;2.63;;
14734;SDS011;7458;49.002;8.472;2022-10-15T17:13:48;6.80;;;5.32;;
14734;SDS011;7458;49.002;8.472;2022-10-15T17:16:17;5.32;;;3.72;;
14734;SDS011;7458;49.002;8.472;2022-10-15T17:18:48;2.65;;;2.05;;
14734;SDS011;7458;49.002;8.472;2022-10-15T17:21:16;3.60;;;2.63;;
14734;SDS011;7458;49.002;8.472;2022-10-15T17:23:45;4.60;;;3.42;;
14734;SDS011;7458;49.002;8.472;2022-10-15T17:26:13;3.60;;;2.45;;
14734;SDS011;7458;49.002;8.472;2022-10-15T17:28:42;2.80;;;1.77;;
14734;SDS011;7458;49.002;8.472;2022-10-15T17:31:13;4.57;;;1.95;;
14734;SDS011;7458;49.002;8.472;2022-10-15T17:33:43;5.53;;;3.38;;
14734;SDS011;7458;49.002;8.472;2022-10-15T17:36:13;2.72;;;2.20;;
14734;SDS011;7458;49.002;8.472;2022-10-15T17:38:42;8.70;;;2.03;;